createdAt,value
2023-04-17T00:13:48.650Z,29.07
2023-04-17T00:16:15.832Z,33.13
2023-04-17T00:18:42.994Z,31.60
2023-04-17T00:21:10.240Z,31.25
2023-04-17T00:23:37.335Z,28.80
2023-04-17T00:26:04.410Z,30.73
2023-04-17T00:28:31.544Z,28.98
2023-04-17T00:30:58.895Z,29.92
2023-04-17T00:33:26.017Z,29.08
2023-04-17T00:35:53.193Z,28.10
2023-04-17T00:38:20.296Z,31.08
2023-04-17T00:40:48.709Z,29.63
2023-04-17T00:43:15.950Z,29.40
2023-04-17T00:45:43.129Z,31.85
2023-04-17T00:48:13.177Z,28.50
2023-04-17T00:50:41.434Z,28.40
2023-04-17T00:53:08.704Z,29.85
2023-04-17T00:55:36.211Z,27.05
2023-04-17T00:58:03.397Z,29.40
2023-04-17T01:00:30.605Z,28.67
2023-04-17T01:02:58.294Z,27.13
2023-04-17T01:05:29.122Z,28.33
2023-04-17T01:07:57.359Z,23.67
2023-04-17T01:10:25.005Z,28.80
2023-04-17T01:13:04.937Z,29.70
2023-04-17T01:15:32.143Z,27.42
2023-04-17T01:17:59.340Z,29.08
2023-04-17T01:20:30.058Z,26.50
2023-04-17T01:23:00.485Z,27.25
2023-04-17T01:25:28.270Z,28.83
2023-04-17T01:27:56.161Z,26.75
2023-04-17T01:30:23.418Z,28.13
2023-04-17T01:32:50.826Z,31.33
2023-04-17T01:35:18.005Z,31.30
2023-04-17T01:37:45.281Z,29.50
2023-04-17T01:40:12.626Z,28.20
2023-04-17T01:42:39.986Z,28.95
2023-04-17T01:45:07.353Z,28.58
2023-04-17T01:47:34.457Z,30.50
2023-04-17T01:50:01.608Z,27.27
2023-04-17T01:52:28.797Z,30.02
2023-04-17T01:54:55.887Z,28.67
2023-04-17T01:57:23.071Z,28.33
2023-04-17T01:59:50.235Z,30.42
2023-04-17T02:02:17.393Z,25.47
2023-04-17T02:04:44.652Z,31.63
2023-04-17T02:07:11.790Z,28.92
2023-04-17T02:09:38.904Z,28.10
2023-04-17T02:12:06.173Z,30.77
2023-04-17T02:14:33.268Z,32.03
2023-04-17T02:17:00.393Z,30.70
2023-04-17T02:19:27.660Z,29.10
2023-04-17T02:21:54.792Z,32.75
2023-04-17T02:24:21.911Z,30.25
2023-04-17T02:26:49.606Z,31.63
2023-04-17T02:29:16.776Z,32.38
2023-04-17T02:31:44.014Z,28.95
2023-04-17T02:34:11.259Z,28.40
2023-04-17T02:36:38.446Z,24.05
2023-04-17T02:39:05.909Z,24.67
2023-04-17T02:41:33.186Z,25.33
2023-04-17T02:44:01.900Z,23.15
2023-04-17T02:46:29.213Z,21.83
2023-04-17T02:48:56.383Z,24.92
2023-04-17T02:51:23.533Z,25.73
2023-04-17T02:53:50.712Z,24.00
2023-04-17T02:56:18.220Z,24.15
2023-04-17T02:58:45.525Z,22.35
2023-04-17T03:01:12.765Z,25.08
2023-04-17T03:03:42.541Z,23.37
2023-04-17T03:06:09.976Z,22.08
2023-04-17T03:08:38.548Z,25.52
2023-04-17T03:11:06.478Z,20.92
2023-04-17T03:13:38.054Z,22.38
2023-04-17T03:16:05.730Z,21.07
2023-04-17T03:18:33.120Z,21.83
2023-04-17T03:21:00.362Z,23.83
2023-04-17T03:23:27.507Z,22.45
2023-04-17T03:25:54.602Z,24.23
2023-04-17T03:28:22.220Z,24.63
2023-04-17T03:30:50.055Z,23.65
2023-04-17T03:33:17.695Z,25.85
2023-04-17T03:35:46.564Z,24.98
2023-04-17T03:38:13.734Z,26.20
2023-04-17T03:40:41.860Z,24.63
2023-04-17T03:43:08.960Z,23.63
2023-04-17T03:45:36.458Z,26.45
2023-04-17T03:48:03.763Z,24.23
2023-04-17T03:50:30.997Z,27.23
2023-04-17T03:52:58.157Z,25.57
2023-04-17T03:55:25.369Z,26.30
2023-04-17T03:57:52.597Z,26.15
2023-04-17T04:00:21.792Z,28.05
2023-04-17T04:02:49.693Z,27.55
2023-04-17T04:05:17.097Z,27.93
2023-04-17T04:07:44.287Z,26.45
2023-04-17T04:10:11.665Z,28.60
2023-04-17T04:12:38.848Z,30.02
2023-04-17T04:15:06.295Z,29.67
2023-04-17T04:17:33.468Z,27.90
2023-04-17T04:20:00.752Z,28.42
2023-04-17T04:22:29.181Z,27.25
2023-04-17T04:24:56.574Z,29.60
2023-04-17T04:27:23.791Z,28.98
2023-04-17T04:29:50.894Z,29.67
2023-04-17T04:32:17.989Z,29.25
2023-04-17T04:34:45.399Z,31.25
2023-04-17T04:37:15.354Z,28.27
2023-04-17T04:39:43.053Z,27.73
2023-04-17T04:42:10.366Z,27.87
2023-04-17T04:44:37.563Z,26.52
2023-04-17T04:47:04.880Z,27.08
2023-04-17T04:49:32.130Z,27.10
2023-04-17T04:51:59.267Z,29.05
2023-04-17T04:54:26.448Z,26.57
2023-04-17T04:56:53.623Z,26.83
2023-04-17T04:59:20.704Z,27.98
2023-04-17T05:01:48.072Z,32.88
2023-04-17T05:04:15.559Z,27.30
2023-04-17T05:06:42.754Z,29.37
2023-04-17T05:09:10.192Z,29.20
2023-04-17T05:11:37.634Z,34.63
2023-04-17T05:14:04.822Z,31.63
2023-04-17T05:16:32.847Z,28.95
2023-04-17T05:19:00.168Z,31.47
2023-04-17T05:21:28.785Z,30.08
2023-04-17T05:23:57.678Z,28.38
2023-04-17T05:26:25.087Z,28.25
2023-04-17T05:28:52.379Z,29.83
2023-04-17T05:31:19.752Z,31.80
2023-04-17T05:33:46.901Z,27.35
2023-04-17T05:36:14.079Z,28.70
2023-04-17T05:38:41.914Z,26.77
2023-04-17T05:41:09.954Z,29.85
2023-04-17T05:43:37.056Z,27.27
2023-04-17T05:46:04.267Z,29.00
2023-04-17T05:48:31.462Z,30.98
2023-04-17T05:50:58.626Z,29.00
2023-04-17T05:53:25.944Z,31.10
2023-04-17T05:55:53.075Z,33.47
2023-04-17T05:58:23.788Z,29.83
2023-04-17T06:00:52.343Z,32.38
2023-04-17T06:03:19.899Z,33.83
2023-04-17T06:05:47.515Z,31.65
2023-04-17T06:08:14.695Z,33.83
2023-04-17T06:10:41.939Z,28.70
2023-04-17T06:13:09.212Z,28.02
2023-04-17T06:15:36.549Z,32.42
2023-04-17T06:18:03.798Z,28.23
2023-04-17T06:20:30.971Z,26.83
2023-04-17T06:22:58.093Z,28.75
2023-04-17T06:25:25.538Z,26.27
2023-04-17T06:27:52.719Z,27.73
2023-04-17T06:30:19.878Z,30.13
2023-04-17T06:32:47.053Z,29.60
2023-04-17T06:35:14.176Z,30.25
2023-04-17T06:37:41.364Z,27.60
2023-04-17T06:40:08.831Z,29.40
2023-04-17T06:42:36.110Z,32.00
2023-04-17T06:45:03.538Z,27.77
2023-04-17T06:47:30.709Z,29.20
2023-04-17T06:49:59.798Z,29.08
2023-04-17T06:52:26.976Z,28.80
2023-04-17T06:54:57.479Z,27.40
2023-04-17T06:57:24.606Z,30.17
2023-04-17T06:59:51.729Z,28.55
2023-04-17T07:02:19.428Z,31.55
2023-04-17T07:04:46.691Z,29.90
2023-04-17T07:07:13.949Z,32.13
2023-04-17T07:09:42.926Z,29.23
2023-04-17T07:12:10.188Z,29.20
2023-04-17T07:14:38.278Z,28.42
2023-04-17T07:17:05.730Z,30.35
2023-04-17T07:19:36.144Z,31.45
2023-04-17T07:22:05.399Z,28.77
2023-04-17T07:24:35.424Z,33.67
2023-04-17T07:27:06.701Z,30.38
2023-04-17T07:29:33.851Z,34.25
2023-04-17T07:32:01.228Z,35.55
2023-04-17T07:34:31.076Z,31.90
2023-04-17T07:36:58.233Z,28.80
2023-04-17T07:39:28.266Z,36.72
2023-04-17T07:41:56.186Z,32.38
2023-04-17T07:44:23.255Z,36.45
2023-04-17T07:46:50.549Z,32.30
2023-04-17T07:49:18.020Z,32.80
2023-04-17T07:51:45.555Z,37.03
2023-04-17T07:54:12.678Z,32.78
2023-04-17T07:56:40.484Z,33.70
2023-04-17T07:59:07.933Z,29.27
2023-04-17T08:01:35.055Z,30.25
2023-04-17T08:04:02.454Z,29.92
2023-04-17T08:06:29.964Z,30.13
2023-04-17T08:08:57.040Z,29.48
2023-04-17T08:11:24.185Z,32.27
2023-04-17T08:13:51.316Z,29.85
2023-04-17T08:16:18.499Z,28.35
2023-04-17T08:18:45.962Z,28.02
2023-04-17T08:21:13.147Z,27.60
2023-04-17T08:23:41.714Z,25.03
2023-04-17T08:26:08.778Z,27.60
2023-04-17T08:28:35.904Z,29.52
2023-04-17T08:31:03.250Z,31.25
2023-04-17T08:33:30.431Z,29.08
2023-04-17T08:35:57.479Z,28.03
2023-04-17T08:38:24.704Z,26.65
2023-04-17T08:40:54.795Z,34.15
2023-04-17T08:43:22.195Z,30.92
2023-04-17T08:45:53.624Z,30.42
2023-04-17T08:48:21.862Z,32.93
2023-04-17T08:50:49.544Z,27.23
2023-04-17T08:53:20.528Z,29.00
2023-04-17T08:55:48.217Z,33.80
2023-04-17T08:58:15.626Z,27.13
2023-04-17T09:00:43.700Z,26.13
2023-04-17T09:03:13.608Z,25.48
2023-04-17T09:05:43.316Z,25.92
2023-04-17T09:08:12.607Z,25.55
2023-04-17T09:10:40.792Z,27.00
2023-04-17T09:13:08.935Z,30.70
2023-04-17T09:15:37.563Z,25.83
2023-04-17T09:18:04.820Z,25.27
2023-04-17T09:20:32.766Z,24.38
2023-04-17T09:23:01.396Z,25.77
2023-04-17T09:25:28.666Z,25.57
2023-04-17T09:28:02.373Z,25.13
2023-04-17T09:30:36.830Z,25.60
2023-04-17T09:33:05.049Z,24.73
2023-04-17T09:35:32.676Z,26.60
2023-04-17T09:37:59.956Z,33.27
2023-04-17T09:40:28.109Z,27.08
2023-04-17T09:43:02.130Z,32.72
2023-04-17T09:45:33.383Z,25.63
2023-04-17T09:48:00.863Z,22.85
2023-04-17T09:50:28.287Z,24.87
2023-04-17T09:52:56.332Z,23.27
2023-04-17T09:55:30.041Z,19.55
2023-04-17T09:57:58.274Z,22.23
2023-04-17T10:00:29.639Z,21.92
2023-04-17T10:02:58.218Z,23.80
2023-04-17T10:05:27.171Z,22.70
2023-04-17T10:07:54.338Z,31.60
2023-04-17T10:10:33.255Z,23.17
2023-04-17T10:13:01.876Z,21.88
2023-04-17T10:15:29.492Z,21.73
2023-04-17T10:18:16.660Z,23.90
2023-04-17T10:20:44.958Z,22.08
2023-04-17T10:23:29.415Z,23.40
2023-04-17T10:26:15.346Z,22.88
2023-04-17T10:28:49.449Z,19.17
2023-04-17T10:31:16.706Z,23.13
2023-04-17T10:33:50.501Z,22.50
2023-04-17T10:36:36.374Z,22.20
2023-04-17T10:39:16.784Z,22.70
2023-04-17T10:42:02.909Z,20.43
2023-04-17T10:44:36.533Z,26.45
2023-04-17T10:47:07.714Z,21.98
2023-04-17T10:49:47.769Z,21.95
2023-04-17T10:52:33.097Z,23.45
2023-04-17T10:55:03.856Z,21.77
2023-04-17T10:57:49.554Z,22.30
2023-04-17T11:00:17.190Z,21.90
2023-04-17T11:02:50.238Z,19.58
2023-04-17T11:05:21.297Z,22.65
2023-04-17T11:07:51.011Z,25.07
2023-04-17T11:10:21.814Z,22.10
2023-04-17T11:12:49.554Z,20.20
2023-04-17T11:15:17.125Z,22.35
2023-04-17T11:17:48.124Z,20.63
2023-04-17T11:20:19.075Z,22.50
2023-04-17T11:22:46.258Z,21.38
2023-04-17T11:25:22.457Z,19.98
2023-04-17T11:27:56.588Z,25.85
2023-04-17T11:30:37.367Z,23.08
2023-04-17T11:33:05.567Z,20.57
2023-04-17T11:35:36.608Z,20.65
2023-04-17T11:38:07.653Z,21.13
2023-04-17T11:40:35.338Z,20.58
2023-04-17T11:43:08.961Z,20.92
2023-04-17T11:45:36.581Z,18.80
2023-04-17T11:48:04.066Z,20.63
2023-04-17T11:50:32.090Z,20.58
2023-04-17T11:53:02.936Z,21.10
2023-04-17T11:55:34.294Z,21.02
2023-04-17T11:58:02.313Z,19.33
2023-04-17T12:00:30.105Z,21.98
2023-04-17T12:03:17.616Z,22.15
2023-04-17T12:05:58.461Z,22.05
2023-04-17T12:08:25.689Z,27.50
2023-04-17T12:10:52.808Z,19.53
2023-04-17T12:13:19.958Z,19.95
2023-04-17T12:15:47.237Z,20.17
2023-04-17T12:18:14.500Z,22.15
2023-04-17T12:20:41.694Z,20.23
2023-04-17T12:23:08.834Z,20.43
2023-04-17T12:25:35.959Z,18.70
2023-04-17T12:28:04.947Z,20.67
2023-04-17T12:30:35.875Z,19.20
2023-04-17T12:33:03.201Z,19.50
2023-04-17T12:35:30.484Z,18.80
2023-04-17T12:37:57.751Z,20.58
2023-04-17T12:40:25.316Z,19.13
2023-04-17T12:42:52.518Z,19.63
2023-04-17T12:45:19.989Z,19.15
2023-04-17T12:47:47.258Z,17.63
2023-04-17T12:50:14.626Z,18.58
2023-04-17T12:52:42.142Z,16.60
2023-04-17T12:55:09.652Z,17.70
2023-04-17T12:57:36.907Z,17.88
2023-04-17T13:00:06.525Z,17.47
2023-04-17T13:02:33.978Z,19.52
2023-04-17T13:05:01.364Z,17.65
2023-04-17T13:07:29.391Z,15.98
2023-04-17T13:09:57.152Z,18.13
2023-04-17T13:12:24.272Z,17.63
2023-04-17T13:14:51.426Z,17.98
2023-04-17T13:17:18.626Z,18.05
2023-04-17T13:19:45.865Z,16.38
2023-04-17T13:22:13.061Z,17.20
2023-04-17T13:24:40.209Z,17.33
2023-04-17T13:27:07.416Z,16.05
2023-04-17T13:29:34.715Z,17.70
2023-04-17T13:32:02.043Z,17.75
2023-04-17T13:34:29.220Z,14.20
2023-04-17T13:36:57.116Z,15.93
2023-04-17T13:39:24.364Z,15.93
2023-04-17T13:41:51.468Z,15.63
2023-04-17T13:44:18.891Z,15.90
2023-04-17T13:46:46.140Z,16.80
2023-04-17T13:49:13.470Z,17.93
2023-04-17T13:51:40.696Z,16.95
2023-04-17T13:54:08.667Z,14.90
2023-04-17T13:56:35.750Z,17.05
2023-04-17T13:59:04.048Z,13.93
2023-04-17T14:01:31.252Z,14.80
2023-04-17T14:04:01.662Z,15.50
2023-04-17T14:06:29.364Z,14.85
2023-04-17T14:08:56.809Z,12.80
2023-04-17T14:11:24.525Z,12.73
2023-04-17T14:13:52.161Z,14.37
2023-04-17T14:16:19.568Z,12.63
2023-04-17T14:18:48.097Z,14.48
2023-04-17T14:21:15.499Z,11.32
2023-04-17T14:23:43.027Z,9.85
2023-04-17T14:26:10.194Z,9.50
2023-04-17T14:28:37.402Z,11.00
2023-04-17T14:31:04.762Z,12.52
2023-04-17T14:33:31.924Z,12.25
2023-04-17T14:35:59.103Z,14.63
2023-04-17T14:38:26.704Z,14.00
2023-04-17T14:40:53.938Z,11.98
2023-04-17T14:43:21.096Z,13.18
2023-04-17T14:45:48.273Z,11.88
2023-04-17T14:48:15.489Z,11.63
2023-04-17T14:50:42.568Z,12.63
2023-04-17T14:53:09.676Z,12.50
2023-04-17T14:55:36.974Z,16.02
2023-04-17T14:58:04.275Z,16.85
2023-04-17T15:00:31.977Z,19.73
2023-04-17T15:02:59.213Z,25.73
2023-04-17T15:05:26.456Z,21.85
2023-04-17T15:07:53.684Z,19.52
2023-04-17T15:10:20.797Z,22.23
2023-04-17T15:12:47.939Z,17.33
2023-04-17T15:15:15.083Z,18.33
2023-04-17T15:17:42.601Z,18.88
2023-04-17T15:20:10.695Z,21.73
2023-04-17T15:22:37.892Z,25.77
2023-04-17T15:25:05.452Z,28.42
2023-04-17T15:27:32.525Z,22.50
2023-04-17T15:29:59.654Z,22.40
2023-04-17T15:32:26.960Z,26.73
2023-04-17T15:34:54.177Z,26.13
2023-04-17T15:37:21.387Z,30.85
2023-04-17T15:39:48.575Z,37.13
2023-04-17T15:42:15.677Z,29.85
2023-04-17T15:44:42.863Z,29.70
2023-04-17T15:47:10.064Z,28.70
2023-04-17T15:49:37.149Z,32.30
2023-04-17T15:52:04.224Z,33.77
2023-04-17T15:54:32.033Z,26.77
2023-04-17T15:56:59.186Z,27.38
2023-04-17T15:59:26.388Z,33.13
2023-04-17T16:01:54.055Z,21.50
2023-04-17T16:04:21.549Z,21.50
2023-04-17T16:06:48.801Z,21.83
2023-04-17T16:09:19.822Z,18.92
2023-04-17T16:11:48.509Z,23.92
2023-04-17T16:14:15.656Z,16.52
2023-04-17T16:16:42.899Z,16.70
2023-04-17T16:19:10.372Z,15.52
2023-04-17T16:21:38.570Z,18.80
2023-04-17T16:24:05.865Z,20.85
2023-04-17T16:26:33.087Z,19.50
2023-04-17T16:29:00.307Z,18.07
2023-04-17T16:31:27.950Z,20.75
2023-04-17T16:33:55.925Z,19.15
2023-04-17T16:36:23.099Z,20.98
2023-04-17T16:38:50.284Z,18.27
2023-04-17T16:41:18.587Z,26.53
2023-04-17T16:43:46.113Z,22.75
2023-04-17T16:46:22.878Z,18.17
2023-04-17T16:48:52.099Z,18.30
2023-04-17T16:51:20.559Z,14.18
2023-04-17T16:53:48.106Z,16.27
2023-04-17T16:56:15.445Z,16.67
2023-04-17T16:58:42.602Z,14.48
2023-04-17T17:01:10.124Z,17.17
2023-04-17T17:03:38.314Z,13.82
2023-04-17T17:06:06.970Z,14.30
2023-04-17T17:08:34.119Z,14.77
2023-04-17T17:11:03.409Z,17.42
2023-04-17T17:13:30.556Z,13.05
2023-04-17T17:15:57.856Z,17.33
2023-04-17T17:18:24.923Z,18.10
2023-04-17T17:20:55.813Z,20.98
2023-04-17T17:23:23.046Z,21.40
2023-04-17T17:25:50.189Z,20.60
2023-04-17T17:28:17.262Z,38.20
2023-04-17T17:30:44.329Z,19.03
2023-04-17T17:33:11.540Z,15.85
2023-04-17T17:35:39.171Z,19.58
2023-04-17T17:38:06.382Z,17.67
2023-04-17T17:40:33.567Z,16.27
2023-04-17T17:43:01.249Z,18.07
2023-04-17T17:45:28.333Z,19.00
2023-04-17T17:47:55.709Z,14.45
2023-04-17T17:50:22.958Z,17.55
2023-04-17T17:52:50.178Z,17.13
2023-04-17T17:55:17.338Z,18.10
2023-04-17T17:57:49.197Z,18.83
2023-04-17T18:00:17.181Z,17.23
2023-04-17T18:02:44.561Z,18.25
2023-04-17T18:05:11.809Z,18.35
2023-04-17T18:07:40.812Z,19.17
2023-04-17T18:10:08.265Z,20.77
2023-04-17T18:12:35.359Z,21.25
2023-04-17T18:15:02.581Z,21.40
2023-04-17T18:17:29.763Z,17.77
2023-04-17T18:19:56.861Z,22.63
2023-04-17T18:22:24.018Z,22.30
2023-04-17T18:24:54.595Z,19.33
2023-04-17T18:27:22.114Z,18.13
2023-04-17T18:29:49.295Z,22.23
2023-04-17T18:32:16.420Z,18.50
2023-04-17T18:34:44.003Z,21.65
2023-04-17T18:37:11.138Z,22.95
2023-04-17T18:39:38.262Z,20.77
2023-04-17T18:42:05.498Z,28.45
2023-04-17T18:44:32.678Z,21.63
2023-04-17T18:46:59.924Z,23.38
2023-04-17T18:49:27.561Z,20.10
2023-04-17T18:51:54.698Z,22.23
2023-04-17T18:54:22.994Z,22.58
2023-04-17T18:56:50.085Z,21.80
2023-04-17T18:59:19.778Z,33.72
2023-04-17T19:01:46.999Z,33.22
2023-04-17T19:04:14.338Z,22.30
2023-04-17T19:06:41.681Z,20.48
2023-04-17T19:09:09.055Z,18.93
2023-04-17T19:11:36.198Z,21.00
2023-04-17T19:14:03.301Z,25.92
2023-04-17T19:16:30.791Z,28.20
2023-04-17T19:18:57.943Z,28.52
2023-04-17T19:21:25.060Z,26.37
2023-04-17T19:23:52.178Z,25.48
2023-04-17T19:26:19.291Z,21.77
2023-04-17T19:28:46.381Z,22.00
2023-04-17T19:31:13.493Z,27.50
2023-04-17T19:33:40.676Z,24.67
2023-04-17T19:36:07.808Z,24.98
2023-04-17T19:38:35.101Z,22.05
2023-04-17T19:41:14.503Z,22.60
2023-04-17T19:43:42.579Z,21.30
2023-04-17T19:46:09.749Z,24.90
2023-04-17T19:48:37.890Z,31.13
2023-04-17T19:51:06.584Z,23.88
2023-04-17T19:53:37.456Z,21.60
2023-04-17T19:56:06.945Z,26.17
2023-04-17T19:58:35.844Z,25.87
2023-04-17T20:01:03.019Z,22.17
2023-04-17T20:03:31.650Z,21.55
2023-04-17T20:05:59.689Z,32.95
2023-04-17T20:08:26.921Z,24.88
2023-04-17T20:10:54.322Z,24.60
2023-04-17T20:13:21.454Z,27.35
2023-04-17T20:15:48.557Z,28.58
2023-04-17T20:18:15.664Z,40.40
2023-04-17T20:20:42.804Z,30.58
2023-04-17T20:23:09.951Z,24.13
2023-04-17T20:25:37.037Z,23.05
2023-04-17T20:28:04.176Z,28.42
2023-04-17T20:30:31.428Z,26.25
2023-04-17T20:32:58.691Z,24.42
2023-04-17T20:35:25.839Z,28.93
2023-04-17T20:37:53.294Z,30.40
2023-04-17T20:40:20.514Z,25.38
2023-04-17T20:42:47.924Z,22.65
2023-04-17T20:45:15.549Z,27.90
2023-04-17T20:47:55.291Z,23.87
2023-04-17T20:50:23.482Z,23.95
2023-04-17T20:52:50.754Z,24.10
2023-04-17T20:55:19.751Z,23.15
2023-04-17T20:57:47.361Z,22.75
2023-04-17T21:00:14.790Z,27.53
2023-04-17T21:02:42.107Z,31.23
2023-04-17T21:05:09.448Z,22.75
2023-04-17T21:07:37.068Z,37.10
2023-04-17T21:10:04.491Z,27.60
2023-04-17T21:12:32.925Z,22.70
2023-04-17T21:15:00.296Z,20.00
2023-04-17T21:17:27.448Z,20.33
2023-04-17T21:19:56.258Z,39.17
2023-04-17T21:22:23.459Z,32.83
2023-04-17T21:24:50.618Z,27.40
2023-04-17T21:27:17.742Z,35.63
2023-04-17T21:29:44.817Z,28.08
2023-04-17T21:32:11.913Z,19.17
2023-04-17T21:34:40.184Z,24.70
2023-04-17T21:37:07.272Z,22.10
2023-04-17T21:39:34.432Z,21.50
2023-04-17T21:42:02.060Z,21.73
2023-04-17T21:44:29.269Z,17.88
2023-04-17T21:46:56.426Z,20.70
2023-04-17T21:49:23.712Z,21.70
2023-04-17T21:51:50.930Z,21.52
2023-04-17T21:54:18.084Z,21.23
2023-04-17T21:56:45.412Z,20.38
2023-04-17T21:59:12.584Z,19.08
2023-04-17T22:01:39.772Z,18.07
2023-04-17T22:04:06.998Z,18.55
2023-04-17T22:06:37.647Z,17.85
2023-04-17T22:09:05.192Z,23.52
2023-04-17T22:11:32.461Z,19.88
2023-04-17T22:13:59.669Z,18.27
2023-04-17T22:16:26.832Z,18.20
2023-04-17T22:18:54.372Z,18.98
2023-04-17T22:21:59.033Z,19.75
2023-04-17T22:24:26.167Z,21.85
2023-04-17T22:27:12.122Z,20.73
2023-04-17T22:29:57.938Z,20.17
2023-04-17T22:33:02.577Z,19.73
2023-04-17T22:35:29.805Z,21.13
2023-04-17T22:38:15.724Z,22.55
2023-04-17T22:41:01.488Z,19.80
2023-04-17T22:43:28.548Z,21.65
2023-04-17T22:45:56.364Z,19.55
2023-04-17T22:48:24.652Z,20.85
2023-04-17T22:51:10.531Z,22.10
2023-04-17T22:53:37.788Z,19.80
2023-04-17T22:56:23.723Z,23.40
2023-04-17T22:59:09.898Z,21.45
2023-04-17T23:01:36.984Z,22.65
2023-04-17T23:04:22.821Z,20.40
2023-04-17T23:07:08.447Z,20.33
2023-04-17T23:09:35.597Z,24.15
2023-04-17T23:12:02.816Z,22.38
2023-04-17T23:14:29.987Z,21.88
2023-04-17T23:16:57.121Z,22.80
2023-04-17T23:19:24.255Z,21.07
2023-04-17T23:21:51.325Z,23.70
2023-04-17T23:24:18.457Z,18.65
2023-04-17T23:26:46.634Z,22.73
2023-04-17T23:29:13.772Z,25.38
2023-04-17T23:31:42.774Z,19.70
2023-04-17T23:34:10.009Z,24.65
2023-04-17T23:36:37.163Z,19.45
2023-04-17T23:39:05.653Z,22.90
2023-04-17T23:41:33.770Z,24.00
2023-04-17T23:44:00.860Z,21.50
2023-04-17T23:46:28.096Z,21.58
2023-04-17T23:48:55.266Z,24.05
2023-04-17T23:51:22.382Z,18.75
2023-04-17T23:53:49.591Z,22.23
2023-04-17T23:56:18.051Z,19.87
2023-04-17T23:58:45.194Z,20.17
